sensor_id;sensor_type;location;lat;lon;timestamp;temperature;humidity
8557;DHT22;4316;53.840;10.762;2023-11-19T00:00:16;5.00;15.40
8557;DHT22;4316;53.840;10.762;2023-11-19T00:02:42;5.00;14.80
8557;DHT22;4316;53.840;10.762;2023-11-19T00:05:08;5.00;18.50
8557;DHT22;4316;53.840;10.762;2023-11-19T00:07:35;5.00;18.80
8557;DHT22;4316;53.840;10.762;2023-11-19T00:10:02;5.00;19.60
8557;DHT22;4316;53.840;10.762;2023-11-19T00:12:32;5.10;22.70
8557;DHT22;4316;53.840;10.762;2023-11-19T00:14:57;5.10;18.80
8557;DHT22;4316;53.840;10.762;2023-11-19T00:17:23;5.10;20.50
8557;DHT22;4316;53.840;10.762;2023-11-19T00:19:48;5.10;20.50
8557;DHT22;4316;53.840;10.762;2023-11-19T00:22:17;5.10;15.80
8557;DHT22;4316;53.840;10.762;2023-11-19T00:24:42;5.10;16.90
8557;DHT22;4316;53.840;10.762;2023-11-19T00:27:08;5.10;14.30
8557;DHT22;4316;53.840;10.762;2023-11-19T00:29:33;5.10;13.30
8557;DHT22;4316;53.840;10.762;2023-11-19T00:31:59;5.10;14.10
8557;DHT22;4316;53.840;10.762;2023-11-19T00:34:24;5.10;12.10
8557;DHT22;4316;53.840;10.762;2023-11-19T00:36:50;5.10;12.60
8557;DHT22;4316;53.840;10.762;2023-11-19T00:39:15;5.10;11.40
8557;DHT22;4316;53.840;10.762;2023-11-19T00:41:41;5.10;12.30
8557;DHT22;4316;53.840;10.762;2023-11-19T00:44:07;5.10;11.50
8557;DHT22;4316;53.840;10.762;2023-11-19T00:46:35;5.10;11.50
8557;DHT22;4316;53.840;10.762;2023-11-19T00:49:02;5.10;16.80
8557;DHT22;4316;53.840;10.762;2023-11-19T00:51:28;5.10;21.40
8557;DHT22;4316;53.840;10.762;2023-11-19T00:53:53;5.10;22.10
8557;DHT22;4316;53.840;10.762;2023-11-19T00:56:19;5.20;20.60
8557;DHT22;4316;53.840;10.762;2023-11-19T00:58:45;5.20;22.70
8557;DHT22;4316;53.840;10.762;2023-11-19T01:01:14;5.10;22.70
8557;DHT22;4316;53.840;10.762;2023-11-19T01:03:39;5.10;22.70
8557;DHT22;4316;53.840;10.762;2023-11-19T01:06:05;5.10;23.40
8557;DHT22;4316;53.840;10.762;2023-11-19T01:08:32;5.10;23.60
8557;DHT22;4316;53.840;10.762;2023-11-19T01:10:57;5.10;25.20
8557;DHT22;4316;53.840;10.762;2023-11-19T01:13:23;5.10;25.60
8557;DHT22;4316;53.840;10.762;2023-11-19T01:15:49;5.10;26.30
8557;DHT22;4316;53.840;10.762;2023-11-19T01:18:15;5.10;24.90
8557;DHT22;4316;53.840;10.762;2023-11-19T01:20:42;5.10;22.50
8557;DHT22;4316;53.840;10.762;2023-11-19T01:23:08;5.10;20.40
8557;DHT22;4316;53.840;10.762;2023-11-19T01:25:34;5.10;21.70
8557;DHT22;4316;53.840;10.762;2023-11-19T01:28:00;5.10;21.70
8557;DHT22;4316;53.840;10.762;2023-11-19T01:30:27;5.10;21.10
8557;DHT22;4316;53.840;10.762;2023-11-19T01:32:53;5.10;20.40
8557;DHT22;4316;53.840;10.762;2023-11-19T01:35:19;5.20;18.30
8557;DHT22;4316;53.840;10.762;2023-11-19T01:37:44;5.20;17.70
8557;DHT22;4316;53.840;10.762;2023-11-19T01:40:10;5.20;18.40
8557;DHT22;4316;53.840;10.762;2023-11-19T01:42:40;5.10;18.30
8557;DHT22;4316;53.840;10.762;2023-11-19T01:45:07;5.10;24.40
8557;DHT22;4316;53.840;10.762;2023-11-19T01:47:34;5.10;24.70
8557;DHT22;4316;53.840;10.762;2023-11-19T01:50:01;5.20;25.30
8557;DHT22;4316;53.840;10.762;2023-11-19T01:52:34;5.10;26.70
8557;DHT22;4316;53.840;10.762;2023-11-19T01:55:03;5.10;26.30
8557;DHT22;4316;53.840;10.762;2023-11-19T01:57:29;5.10;27.60
8557;DHT22;4316;53.840;10.762;2023-11-19T01:59:55;5.20;27.10
8557;DHT22;4316;53.840;10.762;2023-11-19T02:02:21;5.10;28.40
8557;DHT22;4316;53.840;10.762;2023-11-19T02:04:53;5.10;28.60
8557;DHT22;4316;53.840;10.762;2023-11-19T02:07:19;5.20;27.30
8557;DHT22;4316;53.840;10.762;2023-11-19T02:09:44;5.20;27.00
8557;DHT22;4316;53.840;10.762;2023-11-19T02:12:11;5.20;28.70
8557;DHT22;4316;53.840;10.762;2023-11-19T02:14:37;5.20;29.00
8557;DHT22;4316;53.840;10.762;2023-11-19T02:17:03;5.20;28.50
8557;DHT22;4316;53.840;10.762;2023-11-19T02:19:29;5.20;27.80
8557;DHT22;4316;53.840;10.762;2023-11-19T02:21:54;5.20;28.70
8557;DHT22;4316;53.840;10.762;2023-11-19T02:24:22;5.20;26.40
8557;DHT22;4316;53.840;10.762;2023-11-19T02:27:02;5.20;26.40
8557;DHT22;4316;53.840;10.762;2023-11-19T02:29:32;5.20;25.10
8557;DHT22;4316;53.840;10.762;2023-11-19T02:32:00;5.20;25.40
8557;DHT22;4316;53.840;10.762;2023-11-19T02:34:28;5.30;26.90
8557;DHT22;4316;53.840;10.762;2023-11-19T02:36:54;5.30;26.40
8557;DHT22;4316;53.840;10.762;2023-11-19T02:39:20;5.20;27.60
8557;DHT22;4316;53.840;10.762;2023-11-19T02:41:48;5.30;30.40
8557;DHT22;4316;53.840;10.762;2023-11-19T02:44:16;5.20;30.20
8557;DHT22;4316;53.840;10.762;2023-11-19T02:46:42;5.20;30.10
8557;DHT22;4316;53.840;10.762;2023-11-19T02:49:08;5.30;31.20
8557;DHT22;4316;53.840;10.762;2023-11-19T02:51:33;5.20;31.50
8557;DHT22;4316;53.840;10.762;2023-11-19T02:54:00;5.30;31.20
8557;DHT22;4316;53.840;10.762;2023-11-19T02:56:26;5.30;31.00
8557;DHT22;4316;53.840;10.762;2023-11-19T02:58:52;5.30;31.60
8557;DHT22;4316;53.840;10.762;2023-11-19T03:01:26;5.30;31.50
8557;DHT22;4316;53.840;10.762;2023-11-19T03:03:59;5.30;31.30
8557;DHT22;4316;53.840;10.762;2023-11-19T03:06:27;5.30;30.50
8557;DHT22;4316;53.840;10.762;2023-11-19T03:08:55;5.50;26.50
8557;DHT22;4316;53.840;10.762;2023-11-19T03:11:20;5.60;26.20
8557;DHT22;4316;53.840;10.762;2023-11-19T03:13:46;5.40;25.20
8557;DHT22;4316;53.840;10.762;2023-11-19T03:16:12;5.40;24.20
8557;DHT22;4316;53.840;10.762;2023-11-19T03:18:41;5.50;24.00
8557;DHT22;4316;53.840;10.762;2023-11-19T03:21:07;5.40;22.90
8557;DHT22;4316;53.840;10.762;2023-11-19T03:23:33;5.40;23.40
8557;DHT22;4316;53.840;10.762;2023-11-19T03:25:59;5.40;25.90
8557;DHT22;4316;53.840;10.762;2023-11-19T03:28:29;5.40;28.20
8557;DHT22;4316;53.840;10.762;2023-11-19T03:30:54;5.40;30.70
8557;DHT22;4316;53.840;10.762;2023-11-19T03:33:20;5.50;31.20
8557;DHT22;4316;53.840;10.762;2023-11-19T03:35:46;5.40;29.60
8557;DHT22;4316;53.840;10.762;2023-11-19T03:38:12;5.40;29.90
8557;DHT22;4316;53.840;10.762;2023-11-19T03:40:38;5.40;30.00
8557;DHT22;4316;53.840;10.762;2023-11-19T03:43:04;5.50;30.40
8557;DHT22;4316;53.840;10.762;2023-11-19T03:45:30;5.40;30.60
8557;DHT22;4316;53.840;10.762;2023-11-19T03:47:56;5.40;32.60
8557;DHT22;4316;53.840;10.762;2023-11-19T03:50:21;5.50;32.90
8557;DHT22;4316;53.840;10.762;2023-11-19T03:52:47;5.50;32.10
8557;DHT22;4316;53.840;10.762;2023-11-19T03:55:13;5.50;32.40
8557;DHT22;4316;53.840;10.762;2023-11-19T03:57:39;5.40;31.90
8557;DHT22;4316;53.840;10.762;2023-11-19T04:00:05;5.50;33.20
8557;DHT22;4316;53.840;10.762;2023-11-19T04:02:38;5.50;32.80
8557;DHT22;4316;53.840;10.762;2023-11-19T04:05:04;5.50;32.50
8557;DHT22;4316;53.840;10.762;2023-11-19T04:07:30;5.60;32.60
8557;DHT22;4316;53.840;10.762;2023-11-19T04:09:57;5.60;33.70
8557;DHT22;4316;53.840;10.762;2023-11-19T04:12:26;5.60;33.70
8557;DHT22;4316;53.840;10.762;2023-11-19T04:14:52;5.60;34.00
8557;DHT22;4316;53.840;10.762;2023-11-19T04:17:18;5.60;34.20
8557;DHT22;4316;53.840;10.762;2023-11-19T04:19:44;5.60;34.30
8557;DHT22;4316;53.840;10.762;2023-11-19T04:22:10;5.60;34.70
8557;DHT22;4316;53.840;10.762;2023-11-19T04:24:36;5.60;33.90
8557;DHT22;4316;53.840;10.762;2023-11-19T04:27:03;5.60;34.20
8557;DHT22;4316;53.840;10.762;2023-11-19T04:29:30;5.70;35.00
8557;DHT22;4316;53.840;10.762;2023-11-19T04:31:56;5.70;34.70
8557;DHT22;4316;53.840;10.762;2023-11-19T04:34:22;5.70;34.20
8557;DHT22;4316;53.840;10.762;2023-11-19T04:36:47;5.70;35.10
8557;DHT22;4316;53.840;10.762;2023-11-19T04:39:13;5.70;35.40
8557;DHT22;4316;53.840;10.762;2023-11-19T04:41:51;5.70;36.30
8557;DHT22;4316;53.840;10.762;2023-11-19T04:44:20;5.70;36.80
8557;DHT22;4316;53.840;10.762;2023-11-19T04:46:46;5.80;36.10
8557;DHT22;4316;53.840;10.762;2023-11-19T04:49:12;5.80;35.30
8557;DHT22;4316;53.840;10.762;2023-11-19T04:51:43;5.80;34.00
8557;DHT22;4316;53.840;10.762;2023-11-19T04:54:09;5.80;33.80
8557;DHT22;4316;53.840;10.762;2023-11-19T04:56:38;5.80;34.90
8557;DHT22;4316;53.840;10.762;2023-11-19T04:59:05;5.80;35.40
8557;DHT22;4316;53.840;10.762;2023-11-19T05:01:34;5.80;36.30
8557;DHT22;4316;53.840;10.762;2023-11-19T05:04:00;5.80;37.60
8557;DHT22;4316;53.840;10.762;2023-11-19T05:06:27;5.90;38.00
8557;DHT22;4316;53.840;10.762;2023-11-19T05:08:54;5.90;37.20
8557;DHT22;4316;53.840;10.762;2023-11-19T05:11:19;6.00;35.90
8557;DHT22;4316;53.840;10.762;2023-11-19T05:13:45;6.00;35.40
8557;DHT22;4316;53.840;10.762;2023-11-19T05:16:11;6.00;35.50
8557;DHT22;4316;53.840;10.762;2023-11-19T05:18:39;6.00;34.50
8557;DHT22;4316;53.840;10.762;2023-11-19T05:21:05;6.00;36.60
8557;DHT22;4316;53.840;10.762;2023-11-19T05:23:32;6.00;37.70
8557;DHT22;4316;53.840;10.762;2023-11-19T05:26:00;6.00;38.60
8557;DHT22;4316;53.840;10.762;2023-11-19T05:28:25;6.00;38.80
8557;DHT22;4316;53.840;10.762;2023-11-19T05:30:51;6.00;39.00
8557;DHT22;4316;53.840;10.762;2023-11-19T05:33:17;6.10;38.70
8557;DHT22;4316;53.840;10.762;2023-11-19T05:35:42;6.10;37.90
8557;DHT22;4316;53.840;10.762;2023-11-19T05:38:08;6.10;39.00
8557;DHT22;4316;53.840;10.762;2023-11-19T05:40:35;6.10;39.50
8557;DHT22;4316;53.840;10.762;2023-11-19T05:43:01;6.10;39.80
8557;DHT22;4316;53.840;10.762;2023-11-19T05:45:26;6.10;39.80
8557;DHT22;4316;53.840;10.762;2023-11-19T05:47:52;6.20;39.70
8557;DHT22;4316;53.840;10.762;2023-11-19T05:50:18;6.10;39.80
8557;DHT22;4316;53.840;10.762;2023-11-19T05:52:44;6.10;40.50
8557;DHT22;4316;53.840;10.762;2023-11-19T05:55:10;6.20;41.20
8557;DHT22;4316;53.840;10.762;2023-11-19T05:57:39;6.20;41.60
8557;DHT22;4316;53.840;10.762;2023-11-19T06:00:06;6.20;41.70
8557;DHT22;4316;53.840;10.762;2023-11-19T06:02:37;6.20;41.90
8557;DHT22;4316;53.840;10.762;2023-11-19T06:05:04;6.20;42.10
8557;DHT22;4316;53.840;10.762;2023-11-19T06:07:35;6.30;42.20
8557;DHT22;4316;53.840;10.762;2023-11-19T06:10:02;6.30;42.30
8557;DHT22;4316;53.840;10.762;2023-11-19T06:12:30;6.40;42.70
8557;DHT22;4316;53.840;10.762;2023-11-19T06:14:57;6.40;43.20
8557;DHT22;4316;53.840;10.762;2023-11-19T06:17:22;6.40;43.10
8557;DHT22;4316;53.840;10.762;2023-11-19T06:19:48;6.50;44.00
8557;DHT22;4316;53.840;10.762;2023-11-19T06:22:13;6.50;43.70
8557;DHT22;4316;53.840;10.762;2023-11-19T06:24:39;6.50;43.80
8557;DHT22;4316;53.840;10.762;2023-11-19T06:27:04;6.50;43.20
8557;DHT22;4316;53.840;10.762;2023-11-19T06:29:30;6.60;44.60
8557;DHT22;4316;53.840;10.762;2023-11-19T06:31:56;6.70;45.50
8557;DHT22;4316;53.840;10.762;2023-11-19T06:34:21;6.70;45.90
8557;DHT22;4316;53.840;10.762;2023-11-19T06:36:47;6.80;46.60
8557;DHT22;4316;53.840;10.762;2023-11-19T06:39:13;6.80;46.60
8557;DHT22;4316;53.840;10.762;2023-11-19T06:41:44;6.80;45.30
8557;DHT22;4316;53.840;10.762;2023-11-19T06:44:10;6.80;44.90
8557;DHT22;4316;53.840;10.762;2023-11-19T06:46:36;6.80;44.60
8557;DHT22;4316;53.840;10.762;2023-11-19T06:49:01;6.80;45.10
8557;DHT22;4316;53.840;10.762;2023-11-19T06:51:27;6.90;47.30
8557;DHT22;4316;53.840;10.762;2023-11-19T06:53:53;7.00;47.40
8557;DHT22;4316;53.840;10.762;2023-11-19T06:56:23;7.00;46.10
8557;DHT22;4316;53.840;10.762;2023-11-19T06:58:52;7.00;45.30
8557;DHT22;4316;53.840;10.762;2023-11-19T07:01:18;7.00;45.40
8557;DHT22;4316;53.840;10.762;2023-11-19T07:03:47;7.10;46.00
8557;DHT22;4316;53.840;10.762;2023-11-19T07:06:13;7.20;47.70
8557;DHT22;4316;53.840;10.762;2023-11-19T07:08:42;7.20;48.00
8557;DHT22;4316;53.840;10.762;2023-11-19T07:11:10;7.20;47.20
8557;DHT22;4316;53.840;10.762;2023-11-19T07:13:37;7.20;46.70
8557;DHT22;4316;53.840;10.762;2023-11-19T07:16:03;7.20;46.80
8557;DHT22;4316;53.840;10.762;2023-11-19T07:18:29;7.20;47.70
8557;DHT22;4316;53.840;10.762;2023-11-19T07:20:54;7.30;47.50
8557;DHT22;4316;53.840;10.762;2023-11-19T07:23:20;7.40;48.40
8557;DHT22;4316;53.840;10.762;2023-11-19T07:25:47;7.40;48.80
8557;DHT22;4316;53.840;10.762;2023-11-19T07:28:13;7.50;48.70
8557;DHT22;4316;53.840;10.762;2023-11-19T07:30:39;7.40;48.00
8557;DHT22;4316;53.840;10.762;2023-11-19T07:33:05;7.50;48.20
8557;DHT22;4316;53.840;10.762;2023-11-19T07:35:31;7.50;47.90
8557;DHT22;4316;53.840;10.762;2023-11-19T07:37:57;7.50;48.20
8557;DHT22;4316;53.840;10.762;2023-11-19T07:40:23;7.50;48.30
8557;DHT22;4316;53.840;10.762;2023-11-19T07:42:49;7.50;48.50
8557;DHT22;4316;53.840;10.762;2023-11-19T07:45:15;7.50;47.70
8557;DHT22;4316;53.840;10.762;2023-11-19T07:47:44;7.50;47.50
8557;DHT22;4316;53.840;10.762;2023-11-19T07:50:10;7.50;47.90
8557;DHT22;4316;53.840;10.762;2023-11-19T07:52:38;7.60;48.60
8557;DHT22;4316;53.840;10.762;2023-11-19T07:55:04;7.70;49.20
8557;DHT22;4316;53.840;10.762;2023-11-19T07:57:30;7.80;49.70
8557;DHT22;4316;53.840;10.762;2023-11-19T07:59:57;8.00;50.00
8557;DHT22;4316;53.840;10.762;2023-11-19T08:02:22;8.10;50.70
8557;DHT22;4316;53.840;10.762;2023-11-19T08:04:49;8.30;51.30
8557;DHT22;4316;53.840;10.762;2023-11-19T08:07:17;8.50;51.60
8557;DHT22;4316;53.840;10.762;2023-11-19T08:09:43;8.60;51.10
8557;DHT22;4316;53.840;10.762;2023-11-19T08:12:09;8.60;51.30
8557;DHT22;4316;53.840;10.762;2023-11-19T08:14:35;8.80;52.00
8557;DHT22;4316;53.840;10.762;2023-11-19T08:17:00;8.80;51.20
8557;DHT22;4316;53.840;10.762;2023-11-19T08:19:26;8.80;51.00
8557;DHT22;4316;53.840;10.762;2023-11-19T08:21:51;8.90;51.20
8557;DHT22;4316;53.840;10.762;2023-11-19T08:24:17;8.90;50.90
8557;DHT22;4316;53.840;10.762;2023-11-19T08:26:43;9.00;50.80
8557;DHT22;4316;53.840;10.762;2023-11-19T08:29:09;9.00;50.30
8557;DHT22;4316;53.840;10.762;2023-11-19T08:31:34;9.00;50.60
8557;DHT22;4316;53.840;10.762;2023-11-19T08:34:00;9.10;50.70
8557;DHT22;4316;53.840;10.762;2023-11-19T08:36:26;9.20;50.70
8557;DHT22;4316;53.840;10.762;2023-11-19T08:38:54;9.30;51.00
8557;DHT22;4316;53.840;10.762;2023-11-19T08:41:20;9.30;50.80
8557;DHT22;4316;53.840;10.762;2023-11-19T08:43:47;9.40;51.60
8557;DHT22;4316;53.840;10.762;2023-11-19T08:46:13;9.50;51.20
8557;DHT22;4316;53.840;10.762;2023-11-19T08:48:39;9.60;53.00
8557;DHT22;4316;53.840;10.762;2023-11-19T08:51:05;9.80;53.50
8557;DHT22;4316;53.840;10.762;2023-11-19T08:53:30;10.00;53.70
8557;DHT22;4316;53.840;10.762;2023-11-19T08:55:56;10.10;53.00
8557;DHT22;4316;53.840;10.762;2023-11-19T08:58:21;10.20;53.50
8557;DHT22;4316;53.840;10.762;2023-11-19T09:00:47;10.30;53.80
8557;DHT22;4316;53.840;10.762;2023-11-19T09:03:13;10.50;53.40
8557;DHT22;4316;53.840;10.762;2023-11-19T09:05:38;10.60;52.40
8557;DHT22;4316;53.840;10.762;2023-11-19T09:08:04;10.80;52.50
8557;DHT22;4316;53.840;10.762;2023-11-19T09:10:30;10.90;51.90
8557;DHT22;4316;53.840;10.762;2023-11-19T09:12:55;11.00;51.70
8557;DHT22;4316;53.840;10.762;2023-11-19T09:15:21;11.00;49.70
8557;DHT22;4316;53.840;10.762;2023-11-19T09:17:46;11.10;48.50
8557;DHT22;4316;53.840;10.762;2023-11-19T09:20:12;11.20;45.00
8557;DHT22;4316;53.840;10.762;2023-11-19T09:22:41;11.30;44.20
8557;DHT22;4316;53.840;10.762;2023-11-19T09:25:07;11.20;39.30
8557;DHT22;4316;53.840;10.762;2023-11-19T09:27:32;11.20;37.30
8557;DHT22;4316;53.840;10.762;2023-11-19T09:29:58;11.20;37.60
8557;DHT22;4316;53.840;10.762;2023-11-19T09:32:24;11.30;37.30
8557;DHT22;4316;53.840;10.762;2023-11-19T09:34:50;11.30;36.10
8557;DHT22;4316;53.840;10.762;2023-11-19T09:37:16;11.40;32.90
8557;DHT22;4316;53.840;10.762;2023-11-19T09:39:42;11.40;32.30
8557;DHT22;4316;53.840;10.762;2023-11-19T09:42:10;11.40;29.50
8557;DHT22;4316;53.840;10.762;2023-11-19T09:44:38;11.50;29.10
8557;DHT22;4316;53.840;10.762;2023-11-19T09:47:05;11.40;26.50
8557;DHT22;4316;53.840;10.762;2023-11-19T09:49:32;11.40;27.10
8557;DHT22;4316;53.840;10.762;2023-11-19T09:51:58;11.40;27.20
8557;DHT22;4316;53.840;10.762;2023-11-19T09:54:23;11.40;26.80
8557;DHT22;4316;53.840;10.762;2023-11-19T09:56:49;11.30;26.30
8557;DHT22;4316;53.840;10.762;2023-11-19T09:59:16;11.30;27.00
8557;DHT22;4316;53.840;10.762;2023-11-19T10:01:42;11.30;28.00
8557;DHT22;4316;53.840;10.762;2023-11-19T10:04:09;11.20;26.40
8557;DHT22;4316;53.840;10.762;2023-11-19T10:06:35;11.20;27.20
8557;DHT22;4316;53.840;10.762;2023-11-19T10:09:01;11.20;27.60
8557;DHT22;4316;53.840;10.762;2023-11-19T10:11:27;11.20;27.30
8557;DHT22;4316;53.840;10.762;2023-11-19T10:13:53;11.20;26.50
8557;DHT22;4316;53.840;10.762;2023-11-19T10:16:19;11.20;26.60
8557;DHT22;4316;53.840;10.762;2023-11-19T10:18:46;11.30;26.30
8557;DHT22;4316;53.840;10.762;2023-11-19T10:21:12;11.20;26.10
8557;DHT22;4316;53.840;10.762;2023-11-19T10:23:51;11.20;26.60
8557;DHT22;4316;53.840;10.762;2023-11-19T10:26:19;11.20;25.80
8557;DHT22;4316;53.840;10.762;2023-11-19T10:28:46;11.20;26.60
8557;DHT22;4316;53.840;10.762;2023-11-19T10:31:16;11.20;27.60
8557;DHT22;4316;53.840;10.762;2023-11-19T10:33:42;11.20;26.90
8557;DHT22;4316;53.840;10.762;2023-11-19T10:36:11;11.20;27.30
8557;DHT22;4316;53.840;10.762;2023-11-19T10:38:38;11.20;25.50
8557;DHT22;4316;53.840;10.762;2023-11-19T10:41:04;11.30;29.20
8557;DHT22;4316;53.840;10.762;2023-11-19T10:43:30;11.30;28.00
8557;DHT22;4316;53.840;10.762;2023-11-19T10:46:13;11.30;27.30
8557;DHT22;4316;53.840;10.762;2023-11-19T10:48:39;11.30;26.90
8557;DHT22;4316;53.840;10.762;2023-11-19T10:51:06;11.30;27.20
8557;DHT22;4316;53.840;10.762;2023-11-19T10:53:38;11.30;28.20
8557;DHT22;4316;53.840;10.762;2023-11-19T10:56:10;11.30;27.00
8557;DHT22;4316;53.840;10.762;2023-11-19T10:58:36;11.30;26.90
8557;DHT22;4316;53.840;10.762;2023-11-19T11:01:11;11.30;26.60
8557;DHT22;4316;53.840;10.762;2023-11-19T11:03:42;11.20;26.20
8557;DHT22;4316;53.840;10.762;2023-11-19T11:06:12;11.20;27.00
8557;DHT22;4316;53.840;10.762;2023-11-19T11:08:39;11.20;27.30
8557;DHT22;4316;53.840;10.762;2023-11-19T11:11:05;11.20;26.80
8557;DHT22;4316;53.840;10.762;2023-11-19T11:13:33;11.20;26.30
8557;DHT22;4316;53.840;10.762;2023-11-19T11:15:59;11.20;27.40
8557;DHT22;4316;53.840;10.762;2023-11-19T11:18:26;11.20;26.50
8557;DHT22;4316;53.840;10.762;2023-11-19T11:21:11;11.30;27.50
8557;DHT22;4316;53.840;10.762;2023-11-19T11:31:45;11.30;24.60
8557;DHT22;4316;53.840;10.762;2023-11-19T11:34:37;11.40;24.80
8557;DHT22;4316;53.840;10.762;2023-11-19T11:39:41;11.40;24.50
8557;DHT22;4316;53.840;10.762;2023-11-19T11:50:14;11.30;22.10
8557;DHT22;4316;53.840;10.762;2023-11-19T11:55:29;11.30;21.50
8557;DHT22;4316;53.840;10.762;2023-11-19T11:57:59;11.30;21.60
8557;DHT22;4316;53.840;10.762;2023-11-19T12:00:39;11.30;20.70
8557;DHT22;4316;53.840;10.762;2023-11-19T12:03:06;11.40;21.90
8557;DHT22;4316;53.840;10.762;2023-11-19T12:05:33;11.40;22.10
8557;DHT22;4316;53.840;10.762;2023-11-19T12:08:03;11.50;20.90
8557;DHT22;4316;53.840;10.762;2023-11-19T12:10:30;11.50;19.80
8557;DHT22;4316;53.840;10.762;2023-11-19T12:13:05;11.50;22.80
8557;DHT22;4316;53.840;10.762;2023-11-19T12:15:32;11.60;20.20
8557;DHT22;4316;53.840;10.762;2023-11-19T12:17:58;11.70;18.70
8557;DHT22;4316;53.840;10.762;2023-11-19T12:20:25;11.70;17.60
8557;DHT22;4316;53.840;10.762;2023-11-19T12:22:52;11.60;16.80
8557;DHT22;4316;53.840;10.762;2023-11-19T12:25:18;11.60;16.50
8557;DHT22;4316;53.840;10.762;2023-11-19T12:27:46;11.60;18.00
8557;DHT22;4316;53.840;10.762;2023-11-19T12:30:12;11.60;19.30
8557;DHT22;4316;53.840;10.762;2023-11-19T12:32:39;11.70;20.10
8557;DHT22;4316;53.840;10.762;2023-11-19T12:35:05;11.70;18.60
8557;DHT22;4316;53.840;10.762;2023-11-19T12:37:32;11.70;19.50
8557;DHT22;4316;53.840;10.762;2023-11-19T12:39:58;11.70;15.60
8557;DHT22;4316;53.840;10.762;2023-11-19T12:42:39;11.70;15.60
8557;DHT22;4316;53.840;10.762;2023-11-19T12:45:05;11.70;14.30
8557;DHT22;4316;53.840;10.762;2023-11-19T12:47:31;11.70;13.10
8557;DHT22;4316;53.840;10.762;2023-11-19T12:49:59;11.60;13.20
8557;DHT22;4316;53.840;10.762;2023-11-19T12:52:25;11.60;12.60
8557;DHT22;4316;53.840;10.762;2023-11-19T12:54:51;11.70;11.70
8557;DHT22;4316;53.840;10.762;2023-11-19T12:57:17;11.60;11.70
8557;DHT22;4316;53.840;10.762;2023-11-19T12:59:55;11.60;11.20
8557;DHT22;4316;53.840;10.762;2023-11-19T13:02:47;11.70;9.70
8557;DHT22;4316;53.840;10.762;2023-11-19T13:05:31;11.70;9.40
8557;DHT22;4316;53.840;10.762;2023-11-19T13:08:16;11.70;7.10
8557;DHT22;4316;53.840;10.762;2023-11-19T13:13:14;11.70;5.40
8557;DHT22;4316;53.840;10.762;2023-11-19T13:15:39;11.70;4.60
8557;DHT22;4316;53.840;10.762;2023-11-19T13:18:05;11.70;3.60
8557;DHT22;4316;53.840;10.762;2023-11-19T13:20:32;11.70;3.70
8557;DHT22;4316;53.840;10.762;2023-11-19T13:22:59;11.60;5.90
8557;DHT22;4316;53.840;10.762;2023-11-19T13:25:26;11.70;3.50
8557;DHT22;4316;53.840;10.762;2023-11-19T13:27:52;11.70;3.00
8557;DHT22;4316;53.840;10.762;2023-11-19T13:30:18;11.70;4.70
8557;DHT22;4316;53.840;10.762;2023-11-19T13:32:44;11.70;3.00
8557;DHT22;4316;53.840;10.762;2023-11-19T13:35:12;11.80;1.80
8557;DHT22;4316;53.840;10.762;2023-11-19T13:37:38;11.80;1.90
8557;DHT22;4316;53.840;10.762;2023-11-19T13:40:05;11.80;1.30
8557;DHT22;4316;53.840;10.762;2023-11-19T13:42:31;11.90;1.00
8557;DHT22;4316;53.840;10.762;2023-11-19T13:44:57;11.90;1.00
8557;DHT22;4316;53.840;10.762;2023-11-19T13:47:22;11.90;1.00
8557;DHT22;4316;53.840;10.762;2023-11-19T13:49:49;11.90;1.00
8557;DHT22;4316;53.840;10.762;2023-11-19T13:52:15;11.90;1.00
8557;DHT22;4316;53.840;10.762;2023-11-19T13:54:41;11.90;1.00
8557;DHT22;4316;53.840;10.762;2023-11-19T13:57:06;11.90;1.00
8557;DHT22;4316;53.840;10.762;2023-11-19T13:59:32;11.90;1.00
8557;DHT22;4316;53.840;10.762;2023-11-19T14:01:58;11.90;1.00
8557;DHT22;4316;53.840;10.762;2023-11-19T14:04:24;11.80;1.00
8557;DHT22;4316;53.840;10.762;2023-11-19T14:06:50;11.80;1.00
8557;DHT22;4316;53.840;10.762;2023-11-19T14:09:16;11.80;1.00
8557;DHT22;4316;53.840;10.762;2023-11-19T14:11:44;11.80;1.00
8557;DHT22;4316;53.840;10.762;2023-11-19T14:14:14;11.80;1.00
8557;DHT22;4316;53.840;10.762;2023-11-19T14:16:48;11.80;1.00
8557;DHT22;4316;53.840;10.762;2023-11-19T14:19:18;11.80;1.00
8557;DHT22;4316;53.840;10.762;2023-11-19T14:21:53;11.80;1.00
8557;DHT22;4316;53.840;10.762;2023-11-19T14:24:37;11.80;1.00
8557;DHT22;4316;53.840;10.762;2023-11-19T14:27:06;11.70;1.00
8557;DHT22;4316;53.840;10.762;2023-11-19T14:29:31;11.70;1.00
8557;DHT22;4316;53.840;10.762;2023-11-19T14:31:57;11.60;1.00
8557;DHT22;4316;53.840;10.762;2023-11-19T14:34:24;11.60;1.00
8557;DHT22;4316;53.840;10.762;2023-11-19T14:36:51;11.60;1.00
8557;DHT22;4316;53.840;10.762;2023-11-19T14:39:17;11.60;1.00
8557;DHT22;4316;53.840;10.762;2023-11-19T14:41:43;11.60;1.00
8557;DHT22;4316;53.840;10.762;2023-11-19T14:44:10;11.50;1.00
8557;DHT22;4316;53.840;10.762;2023-11-19T14:46:36;11.60;1.00
8557;DHT22;4316;53.840;10.762;2023-11-19T14:49:01;11.60;1.00
8557;DHT22;4316;53.840;10.762;2023-11-19T14:51:27;11.60;1.00
8557;DHT22;4316;53.840;10.762;2023-11-19T14:53:53;11.60;1.00
8557;DHT22;4316;53.840;10.762;2023-11-19T14:56:18;11.50;1.00
8557;DHT22;4316;53.840;10.762;2023-11-19T14:58:44;11.50;1.00
8557;DHT22;4316;53.840;10.762;2023-11-19T15:01:13;11.50;1.00
8557;DHT22;4316;53.840;10.762;2023-11-19T15:03:40;11.40;1.00
8557;DHT22;4316;53.840;10.762;2023-11-19T15:06:06;11.40;1.00
8557;DHT22;4316;53.840;10.762;2023-11-19T15:08:32;11.40;1.00
8557;DHT22;4316;53.840;10.762;2023-11-19T15:10:58;11.40;1.00
8557;DHT22;4316;53.840;10.762;2023-11-19T15:13:24;11.40;1.00
8557;DHT22;4316;53.840;10.762;2023-11-19T15:15:50;11.30;1.00
8557;DHT22;4316;53.840;10.762;2023-11-19T15:18:18;11.30;1.00
8557;DHT22;4316;53.840;10.762;2023-11-19T15:20:44;11.20;1.00
8557;DHT22;4316;53.840;10.762;2023-11-19T15:23:13;11.30;1.00
8557;DHT22;4316;53.840;10.762;2023-11-19T15:25:38;11.20;1.00
8557;DHT22;4316;53.840;10.762;2023-11-19T15:28:04;11.20;1.00
8557;DHT22;4316;53.840;10.762;2023-11-19T15:30:30;11.20;1.00
8557;DHT22;4316;53.840;10.762;2023-11-19T15:32:56;11.20;1.00
8557;DHT22;4316;53.840;10.762;2023-11-19T15:35:22;11.20;2.20
8557;DHT22;4316;53.840;10.762;2023-11-19T15:37:48;11.20;1.00
8557;DHT22;4316;53.840;10.762;2023-11-19T15:40:14;11.20;2.30
8557;DHT22;4316;53.840;10.762;2023-11-19T15:42:40;11.20;1.20
8557;DHT22;4316;53.840;10.762;2023-11-19T15:45:06;11.30;1.00
8557;DHT22;4316;53.840;10.762;2023-11-19T15:47:35;11.20;1.00
8557;DHT22;4316;53.840;10.762;2023-11-19T15:50:02;11.20;1.00
8557;DHT22;4316;53.840;10.762;2023-11-19T15:52:29;11.10;1.00
8557;DHT22;4316;53.840;10.762;2023-11-19T15:54:56;11.10;1.00
8557;DHT22;4316;53.840;10.762;2023-11-19T15:57:21;11.10;1.00
8557;DHT22;4316;53.840;10.762;2023-11-19T15:59:47;11.10;1.00
8557;DHT22;4316;53.840;10.762;2023-11-19T16:02:13;11.10;1.00
8557;DHT22;4316;53.840;10.762;2023-11-19T16:04:39;11.10;1.00
8557;DHT22;4316;53.840;10.762;2023-11-19T16:07:05;11.00;1.00
8557;DHT22;4316;53.840;10.762;2023-11-19T16:09:31;11.00;1.90
8557;DHT22;4316;53.840;10.762;2023-11-19T16:11:57;11.00;2.30
8557;DHT22;4316;53.840;10.762;2023-11-19T16:14:26;10.90;1.70
8557;DHT22;4316;53.840;10.762;2023-11-19T16:16:51;10.90;1.20
8557;DHT22;4316;53.840;10.762;2023-11-19T16:19:22;11.00;1.00